createdAt,value
2023-02-27T00:00:46.419Z,46.42
2023-02-27T00:01:46.624Z,46.37
2023-02-27T00:02:46.848Z,45.88
2023-02-27T00:03:47.028Z,45.37
2023-02-27T00:04:47.218Z,45.36
2023-02-27T00:05:47.443Z,44.92
2023-02-27T00:06:47.681Z,44.88
2023-02-27T00:07:47.837Z,44.80
2023-02-27T00:08:48.022Z,44.58
2023-02-27T00:09:48.222Z,44.21
2023-02-27T00:10:48.360Z,44.87
2023-02-27T00:11:48.543Z,45.35
2023-02-27T00:12:48.775Z,44.56
2023-02-27T00:13:48.982Z,45.52
2023-02-27T00:14:49.211Z,45.17
2023-02-27T00:15:49.524Z,44.60
2023-02-27T00:16:49.630Z,44.76
2023-02-27T00:17:49.858Z,45.42
2023-02-27T00:18:50.064Z,45.52
2023-02-27T00:19:50.291Z,45.54
2023-02-27T00:20:50.510Z,45.86
2023-02-27T00:47:56.056Z,44.87
2023-02-27T00:48:56.264Z,45.50
2023-02-27T00:49:56.484Z,45.19
2023-02-27T00:50:56.705Z,45.48
2023-02-27T01:37:06.119Z,46.90
2023-02-27T01:38:06.316Z,46.14
2023-02-27T01:39:06.575Z,45.90
2023-02-27T01:40:06.808Z,46.03
2023-02-27T01:41:07.034Z,46.66
2023-02-27T01:42:07.272Z,46.08
2023-02-27T01:43:07.504Z,45.64
2023-02-27T01:44:07.700Z,45.16
2023-02-27T01:45:07.900Z,45.10
2023-02-27T01:46:08.121Z,44.97
2023-02-27T01:47:08.257Z,45.73
2023-02-27T01:48:08.477Z,45.07
2023-02-27T01:49:08.674Z,44.89
2023-02-27T01:50:08.880Z,45.38
2023-02-27T01:51:09.103Z,45.06
2023-02-27T01:52:09.321Z,44.66
2023-02-27T01:53:09.536Z,44.80
2023-02-27T01:54:09.733Z,44.63
2023-02-27T01:55:09.930Z,44.50
2023-02-27T01:56:10.136Z,45.09
2023-02-27T01:57:10.343Z,45.27
2023-02-27T02:24:15.941Z,46.28
2023-02-27T02:25:16.151Z,46.29
2023-02-27T02:26:16.362Z,46.49
2023-02-27T02:27:16.580Z,46.85
2023-02-27T02:38:18.671Z,46.73
2023-02-27T02:39:18.839Z,46.14
2023-02-27T02:40:19.039Z,45.91
2023-02-27T02:41:19.267Z,45.67
2023-02-27T02:42:19.513Z,45.39
2023-02-27T02:43:19.663Z,45.15
2023-02-27T02:44:19.871Z,45.23
2023-02-27T02:45:20.045Z,44.88
2023-02-27T03:15:26.106Z,48.72
2023-02-27T03:16:26.300Z,48.75
2023-02-27T04:01:35.967Z,46.33
2023-02-27T04:02:36.158Z,46.21
2023-02-27T04:03:36.350Z,46.60
2023-02-27T04:04:36.576Z,46.48
2023-02-27T04:05:36.805Z,45.87
2023-02-27T04:06:37.005Z,45.85
2023-02-27T04:07:37.215Z,46.12
2023-02-27T04:08:37.418Z,45.46
2023-02-27T04:09:37.592Z,45.54
2023-02-27T04:10:37.763Z,45.08
2023-02-27T04:58:45.997Z,47.22
2023-02-27T04:59:46.203Z,46.89
2023-02-27T05:00:46.401Z,46.79
2023-02-27T05:01:46.660Z,46.82
2023-02-27T05:02:46.816Z,46.61
2023-02-27T05:03:46.943Z,46.09
2023-02-27T05:04:47.112Z,45.92
2023-02-27T05:05:47.283Z,45.62
2023-02-27T05:06:47.452Z,45.41
2023-02-27T05:07:47.596Z,45.29
2023-02-27T05:08:47.760Z,45.07
2023-02-27T05:09:47.917Z,45.04
2023-02-27T05:10:48.116Z,45.45
2023-02-27T05:11:48.307Z,45.22
2023-02-27T05:12:48.472Z,45.76
2023-02-27T05:55:56.114Z,44.99
2023-02-27T05:56:56.292Z,44.74
2023-02-27T05:57:56.443Z,44.58
2023-02-27T05:58:56.583Z,44.55
2023-02-27T05:59:56.746Z,44.41
2023-02-27T06:00:56.879Z,44.76
2023-02-27T06:01:57.141Z,44.61
2023-02-27T06:02:57.247Z,44.81
2023-02-27T06:03:57.389Z,44.77
2023-02-27T06:50:05.948Z,46.04
2023-02-27T06:51:06.145Z,46.03
2023-02-27T06:52:06.357Z,46.48
2023-02-27T06:53:06.566Z,46.96
2023-02-27T06:54:06.773Z,46.61
2023-02-27T06:55:06.980Z,46.73
2023-02-27T06:56:07.179Z,46.73
2023-02-27T06:57:07.392Z,46.69
2023-02-27T07:08:09.651Z,46.26
2023-02-27T07:40:16.030Z,48.80
2023-02-27T07:41:29.585Z,48.54
2023-02-27T07:42:17.367Z,48.85
2023-02-27T07:43:16.510Z,48.25
2023-02-27T07:44:16.675Z,48.12
2023-02-27T07:45:16.819Z,47.98
2023-02-27T07:46:16.994Z,48.16
2023-02-27T07:47:17.115Z,47.76
2023-02-27T07:48:17.268Z,47.42
2023-02-27T07:49:17.416Z,47.16
2023-02-27T07:50:17.567Z,47.28
2023-02-27T07:51:17.704Z,46.86
2023-02-27T07:52:17.851Z,47.30
2023-02-27T07:53:18.063Z,46.99
2023-02-27T07:54:18.252Z,47.29
2023-02-27T07:55:18.468Z,46.69
2023-02-27T07:56:18.639Z,46.67
2023-02-27T07:57:18.854Z,46.22
2023-02-27T07:58:19.017Z,46.46
2023-02-27T07:59:19.224Z,47.15
2023-02-27T08:00:19.432Z,47.62
2023-02-27T08:01:19.630Z,47.83
2023-02-27T08:02:19.829Z,47.66
2023-02-27T08:03:20.025Z,47.71
2023-02-27T08:04:20.253Z,47.03
2023-02-27T08:05:20.452Z,47.03
2023-02-27T08:06:20.660Z,46.81
2023-02-27T08:07:20.910Z,47.22
2023-02-27T08:08:21.061Z,47.29
2023-02-27T08:09:21.254Z,47.04
2023-02-27T08:10:21.486Z,47.66
2023-02-27T08:11:21.699Z,47.79
2023-02-27T08:12:21.910Z,47.46
2023-02-27T08:13:42.203Z,47.08
2023-02-27T08:14:23.274Z,46.46
2023-02-27T08:15:22.401Z,46.11
2023-02-27T08:16:22.561Z,46.67
2023-02-27T08:17:22.693Z,46.46
2023-02-27T08:18:22.838Z,47.18
2023-02-27T08:19:23.012Z,46.84
2023-02-27T08:20:23.153Z,47.44
2023-02-27T08:21:23.324Z,46.57
2023-02-27T08:22:23.467Z,46.12
2023-02-27T08:23:23.613Z,46.91
2023-02-27T08:24:23.773Z,46.42
2023-02-27T08:25:23.902Z,45.78
2023-02-27T08:26:24.055Z,45.33
2023-02-27T08:27:24.214Z,45.16
2023-02-27T08:28:24.961Z,45.51
2023-02-27T08:29:24.599Z,44.97
2023-02-27T08:30:24.763Z,44.89
2023-02-27T08:31:24.924Z,44.51
2023-02-27T08:32:25.149Z,44.27
2023-02-27T08:33:25.252Z,43.90
2023-02-27T08:34:25.418Z,43.47
2023-02-27T08:35:25.552Z,43.89
2023-02-27T08:36:26.024Z,43.77
2023-02-27T08:37:25.850Z,43.48
2023-02-27T08:38:26.514Z,43.84
2023-02-27T08:39:26.118Z,43.53
2023-02-27T08:40:26.256Z,43.18
2023-02-27T08:41:26.392Z,43.02
2023-02-27T08:42:26.969Z,43.24
2023-02-27T08:43:26.725Z,42.88
2023-02-27T08:44:29.569Z,42.86
2023-02-27T08:45:27.091Z,42.70
2023-02-27T08:46:27.430Z,42.33
2023-02-27T08:47:27.251Z,42.30
2023-02-27T08:48:27.373Z,42.50
2023-02-27T08:49:27.497Z,42.58
2023-02-27T08:50:27.624Z,42.56
2023-02-27T08:51:28.058Z,42.80
2023-02-27T08:52:27.887Z,42.47
2023-02-27T08:53:28.043Z,42.63
2023-02-27T08:54:28.141Z,42.54
2023-02-27T08:55:28.271Z,43.06
2023-02-27T08:56:28.749Z,42.46
2023-02-27T08:57:28.539Z,42.63
2023-02-27T08:58:28.678Z,42.58
2023-02-27T08:59:30.477Z,42.25
2023-02-27T09:00:28.961Z,42.12
2023-02-27T09:01:29.442Z,41.74
2023-02-27T09:02:29.222Z,41.90
2023-02-27T09:03:29.322Z,41.74
2023-02-27T09:04:29.450Z,41.24
2023-02-27T09:05:29.562Z,40.96
2023-02-27T09:06:29.894Z,40.79
2023-02-27T09:07:29.802Z,40.32
2023-02-27T09:08:30.465Z,40.28
2023-02-27T09:09:30.030Z,40.18
2023-02-27T09:10:30.162Z,40.46
2023-02-27T09:11:30.656Z,41.62
2023-02-27T09:12:30.449Z,41.70
2023-02-27T09:13:30.602Z,41.65
2023-02-27T09:14:30.756Z,40.98
2023-02-27T09:15:30.958Z,40.76
2023-02-27T09:16:31.507Z,40.93
2023-02-27T09:17:31.331Z,40.93
2023-02-27T09:18:31.524Z,40.65
2023-02-27T09:19:31.691Z,40.85
2023-02-27T09:20:31.983Z,40.44
2023-02-27T09:21:32.060Z,40.13
2023-02-27T09:22:32.226Z,40.25
2023-02-27T09:23:32.406Z,40.28
2023-02-27T09:24:32.568Z,40.22
2023-02-27T09:25:32.717Z,39.97
2023-02-27T09:26:43.631Z,39.68
2023-02-27T09:27:34.012Z,39.62
2023-02-27T09:28:33.111Z,39.81
2023-02-27T09:29:33.221Z,39.49
2023-02-27T09:30:33.383Z,39.57
2023-02-27T09:32:33.617Z,39.26
2023-02-27T09:33:33.676Z,38.86
2023-02-27T09:34:33.788Z,39.17
2023-02-27T09:35:33.955Z,38.77
2023-02-27T09:36:34.059Z,38.57
2023-02-27T09:37:34.157Z,38.68
2023-02-27T09:38:34.285Z,39.00
2023-02-27T09:39:34.501Z,39.41
2023-02-27T09:40:34.553Z,38.95
2023-02-27T09:41:34.682Z,39.78
2023-02-27T09:42:34.813Z,39.84
2023-02-27T09:43:35.100Z,39.62
2023-02-27T09:44:45.764Z,40.09
2023-02-27T09:45:36.215Z,39.64
2023-02-27T09:51:35.976Z,39.77
2023-02-27T09:52:36.123Z,39.65
2023-02-27T09:53:36.248Z,39.39
2023-02-27T09:54:36.366Z,39.50
2023-02-27T09:55:36.533Z,39.30
2023-02-27T09:56:36.703Z,39.54
2023-02-27T09:57:36.887Z,39.47
2023-02-27T10:13:39.765Z,38.19
2023-02-27T10:14:39.917Z,38.39
2023-02-27T10:15:40.068Z,37.84
2023-02-27T10:16:40.215Z,37.89
2023-02-27T10:17:40.334Z,37.91
2023-02-27T10:18:40.468Z,38.02
2023-02-27T10:19:41.389Z,38.63
2023-02-27T10:20:40.763Z,38.40
2023-02-27T12:14:56.079Z,36.19
2023-02-27T12:15:56.237Z,36.18
2023-02-27T12:16:56.333Z,35.68
2023-02-27T12:17:56.455Z,35.92
2023-02-27T12:18:56.597Z,36.25
2023-02-27T12:19:56.712Z,36.01
2023-02-27T12:20:56.863Z,36.18
2023-02-27T12:21:57.041Z,36.60
2023-02-27T12:22:57.185Z,36.66
2023-02-27T12:23:57.348Z,36.94
2023-02-27T12:24:57.581Z,36.68
2023-02-27T12:25:57.726Z,36.79
2023-02-27T12:39:59.309Z,37.68
2023-02-27T13:27:05.947Z,38.92
2023-02-27T13:29:06.156Z,38.65
2023-02-27T14:59:15.978Z,39.34
2023-02-27T15:00:16.140Z,39.10
2023-02-27T15:01:16.299Z,38.75
2023-02-27T15:02:16.452Z,38.40
2023-02-27T15:03:16.600Z,38.60
2023-02-27T15:04:16.852Z,38.80
2023-02-27T15:05:16.909Z,39.03
2023-02-27T15:06:17.087Z,39.43
2023-02-27T15:07:17.238Z,39.75
2023-02-27T15:08:17.392Z,39.64
2023-02-27T15:09:17.523Z,39.52
2023-02-27T15:10:17.658Z,39.48
2023-02-27T15:11:17.798Z,39.70
2023-02-27T15:12:17.932Z,40.21
2023-02-27T15:13:18.032Z,40.03
2023-02-27T16:11:26.047Z,42.12
2023-02-27T16:12:26.165Z,42.81
2023-02-27T16:13:26.331Z,43.53
2023-02-27T16:14:26.623Z,43.59
2023-02-27T16:15:26.628Z,44.18
2023-02-27T16:16:27.343Z,43.80
2023-02-27T16:17:27.030Z,43.42
2023-02-27T16:18:27.168Z,44.18
2023-02-27T16:19:27.332Z,43.97
2023-02-27T16:20:27.510Z,43.90
2023-02-27T16:21:27.708Z,43.73
2023-02-27T16:22:27.833Z,43.44
2023-02-27T16:23:27.966Z,43.75
2023-02-27T16:24:28.124Z,43.15
2023-02-27T16:25:28.290Z,42.86
2023-02-27T16:26:28.718Z,42.66
2023-02-27T16:27:28.528Z,43.05
2023-02-27T16:28:28.669Z,44.04
2023-02-27T16:29:28.901Z,44.38
2023-02-27T16:30:29.028Z,43.38
2023-02-27T16:31:29.287Z,43.39
2023-02-27T16:32:29.399Z,43.47
2023-02-27T16:33:29.537Z,43.28
2023-02-27T16:34:42.849Z,43.17
2023-02-27T17:16:36.142Z,45.56
2023-02-27T17:17:36.289Z,45.75
2023-02-27T17:18:36.458Z,46.31
2023-02-27T17:19:36.604Z,46.48
2023-02-27T17:20:36.763Z,45.77
2023-02-27T17:21:37.137Z,45.87
2023-02-27T17:22:37.423Z,46.04
2023-02-27T17:23:37.648Z,45.81
2023-02-27T17:24:37.830Z,45.22
2023-02-27T17:25:38.012Z,45.06
2023-02-27T17:26:38.186Z,45.39
2023-02-27T17:27:38.376Z,45.93
2023-02-27T17:28:38.539Z,45.99
2023-02-27T17:29:38.662Z,45.73
2023-02-27T17:30:39.558Z,45.23
2023-02-27T17:31:38.946Z,44.81
2023-02-27T17:32:39.147Z,44.86
2023-02-27T17:33:39.308Z,44.68
2023-02-27T17:34:39.474Z,44.67
2023-02-27T17:35:39.658Z,44.54
2023-02-27T17:36:39.818Z,44.69
2023-02-27T17:37:39.977Z,45.27
2023-02-27T17:38:40.158Z,45.85
2023-02-27T17:39:41.026Z,45.29
2023-02-27T17:40:40.546Z,45.19
2023-02-27T17:41:40.698Z,45.31
2023-02-27T17:42:40.890Z,45.21
2023-02-27T17:43:41.042Z,46.30
2023-02-27T17:44:41.811Z,46.41
2023-02-27T17:45:41.334Z,46.84
2023-02-27T17:46:41.470Z,46.37
2023-02-27T17:47:41.597Z,46.51
2023-02-27T17:48:41.733Z,46.49
2023-02-27T17:49:41.884Z,47.21
2023-02-27T17:50:44.032Z,47.10
2023-02-27T17:51:42.135Z,47.28
2023-02-27T17:52:42.259Z,46.64
2023-02-27T17:53:42.403Z,46.92
2023-02-27T17:54:42.516Z,46.73
2023-02-27T17:55:42.673Z,46.11
2023-02-27T17:56:42.753Z,46.37
2023-02-27T17:57:42.874Z,46.65
2023-02-27T18:23:46.007Z,48.67
2023-02-27T18:24:46.135Z,48.32
2023-02-27T18:25:46.280Z,49.12
2023-02-27T18:26:46.446Z,49.70
2023-02-27T18:27:46.561Z,50.28
2023-02-27T18:28:46.713Z,50.09
2023-02-27T18:29:46.858Z,50.13
2023-02-27T18:30:47.011Z,50.07
2023-02-27T18:31:47.217Z,50.65
2023-02-27T18:32:47.304Z,50.42
2023-02-27T18:33:47.440Z,50.00
2023-02-27T18:34:47.567Z,50.87
2023-02-27T18:35:47.752Z,50.96
2023-02-27T18:36:47.851Z,50.86
2023-02-27T18:37:48.007Z,50.67
2023-02-27T18:38:48.138Z,50.32
2023-02-27T18:39:48.269Z,50.17
2023-02-27T18:40:48.401Z,49.99
2023-02-27T18:41:48.522Z,50.29
2023-02-27T18:42:48.707Z,50.40
2023-02-27T18:43:48.772Z,50.76
2023-02-27T18:44:48.912Z,49.74
2023-02-27T18:45:49.027Z,50.07
2023-02-27T18:46:49.264Z,49.84
2023-02-27T18:47:49.293Z,49.25
2023-02-27T18:48:49.485Z,49.20
2023-02-27T18:49:49.650Z,49.06
2023-02-27T18:50:49.896Z,48.90
2023-02-27T18:51:50.000Z,48.43
2023-02-27T18:52:50.135Z,49.09
2023-02-27T18:53:50.274Z,48.46
2023-02-27T18:54:50.396Z,48.05
2023-02-27T18:55:50.528Z,48.23
2023-02-27T18:56:50.716Z,47.84
2023-02-27T18:57:50.894Z,48.59
2023-02-27T18:58:51.043Z,49.07
2023-02-27T18:59:51.190Z,48.66
2023-02-27T19:00:51.334Z,48.21
2023-02-27T19:01:51.456Z,48.13
2023-02-27T19:02:51.620Z,47.51
2023-02-27T19:03:51.757Z,47.77
2023-02-27T19:04:51.893Z,48.67
2023-02-27T19:05:52.016Z,48.31
2023-02-27T19:06:52.172Z,47.81
2023-02-27T19:07:52.352Z,48.30
2023-02-27T19:08:52.589Z,47.70
2023-02-27T19:09:52.701Z,47.82
2023-02-27T19:10:52.828Z,48.43
2023-02-27T19:11:52.947Z,48.32
2023-02-27T19:12:53.102Z,49.52
2023-02-27T19:13:53.342Z,49.66
2023-02-27T19:14:53.455Z,48.77
2023-02-27T19:15:53.687Z,49.62
2023-02-27T19:31:56.172Z,48.86
2023-02-27T19:32:56.325Z,48.92
2023-02-27T19:33:56.501Z,49.40
2023-02-27T19:35:56.817Z,49.60
2023-02-27T19:36:56.931Z,48.57
2023-02-27T20:31:05.949Z,49.41
2023-02-27T20:32:06.607Z,48.77
2023-02-27T20:33:06.325Z,48.26
2023-02-27T20:34:06.513Z,48.12
2023-02-27T20:35:06.694Z,47.87
2023-02-27T20:36:06.893Z,47.52
2023-02-27T20:37:07.060Z,47.51
2023-02-27T20:38:07.238Z,47.41
2023-02-27T20:39:07.439Z,47.32
2023-02-27T20:40:07.600Z,48.23
2023-02-27T20:41:07.725Z,47.92
2023-02-27T20:42:07.936Z,48.51
2023-02-27T20:43:08.080Z,47.85
2023-02-27T20:44:08.209Z,48.27
2023-02-27T20:45:08.347Z,48.48
2023-02-27T20:46:08.536Z,49.05
2023-02-27T20:47:08.651Z,48.50
2023-02-27T20:48:08.800Z,49.52
2023-02-27T20:49:08.986Z,49.89
2023-02-27T20:50:09.170Z,49.39
2023-02-27T20:51:09.337Z,49.24
2023-02-27T20:52:09.465Z,49.93
2023-02-27T20:53:09.645Z,50.33
2023-02-27T20:54:09.816Z,49.64
2023-02-27T20:55:09.968Z,49.24
2023-02-27T20:56:10.122Z,49.05
2023-02-27T20:57:10.265Z,49.16
2023-02-27T20:58:10.469Z,49.20
2023-02-27T20:59:10.687Z,48.54
2023-02-27T21:00:10.909Z,48.25
2023-02-27T21:01:11.165Z,47.94
2023-02-27T21:02:11.330Z,47.77
2023-02-27T21:03:11.505Z,47.42
2023-02-27T21:04:11.774Z,47.22
2023-02-27T21:05:11.952Z,47.44
2023-02-27T21:06:12.056Z,47.26
2023-02-27T21:07:13.060Z,47.09
2023-02-27T21:08:12.436Z,46.93
2023-02-27T21:09:12.611Z,46.80
2023-02-27T21:10:12.814Z,47.87
2023-02-27T21:11:12.972Z,47.21
2023-02-27T21:12:13.129Z,47.42
2023-02-27T21:13:13.262Z,46.84
2023-02-27T21:14:13.436Z,47.15
2023-02-27T21:15:13.611Z,46.98
2023-02-27T21:16:13.874Z,47.87
2023-02-27T21:17:14.067Z,47.99
2023-02-27T21:18:14.200Z,47.94
2023-02-27T21:19:14.355Z,48.66
2023-02-27T21:20:14.519Z,48.67
2023-02-27T21:21:14.699Z,49.13
2023-02-27T21:22:14.865Z,48.55
2023-02-27T21:23:15.089Z,48.30
2023-02-27T21:24:15.329Z,48.64
2023-02-27T21:25:15.576Z,48.37
2023-02-27T21:26:15.730Z,48.37
2023-02-27T21:27:15.868Z,48.37
2023-02-27T21:28:16.019Z,48.37
2023-02-27T21:29:16.181Z,47.91
2023-02-27T21:30:16.344Z,47.90
2023-02-27T21:31:16.586Z,48.36
2023-02-27T21:32:16.741Z,48.45
2023-02-27T21:33:16.830Z,49.08
2023-02-27T21:34:16.981Z,49.41
2023-02-27T21:35:17.135Z,49.12
2023-02-27T21:36:17.263Z,49.57
2023-02-27T21:37:17.447Z,49.77
2023-02-27T21:38:17.602Z,49.40
2023-02-27T21:39:17.778Z,49.46
2023-02-27T21:40:17.920Z,48.76
2023-02-27T21:41:18.068Z,48.77
2023-02-27T21:42:18.216Z,48.49
2023-02-27T21:43:18.397Z,48.33
2023-02-27T22:31:26.140Z,48.99
2023-02-27T22:32:26.278Z,48.29
2023-02-27T22:33:26.376Z,48.41
2023-02-27T22:34:26.521Z,48.88
2023-02-27T22:35:26.690Z,48.90
2023-02-27T22:36:26.794Z,48.32
2023-02-27T22:37:26.950Z,48.19
2023-02-27T22:38:27.170Z,48.37
2023-02-27T22:39:27.376Z,48.20
2023-02-27T22:40:27.576Z,47.79
2023-02-27T22:41:28.304Z,47.72
2023-02-27T22:42:27.977Z,47.86
2023-02-27T22:43:28.163Z,47.54
2023-02-27T22:44:28.362Z,47.45
2023-02-27T22:45:28.542Z,49.02
2023-02-27T22:46:28.797Z,48.12
2023-02-27T22:47:28.857Z,47.59
2023-02-27T22:48:29.012Z,47.69
2023-02-27T22:49:29.171Z,48.23
2023-02-27T22:50:29.423Z,47.79
2023-02-27T22:51:30.021Z,47.75
2023-02-27T22:52:29.779Z,47.67
2023-02-27T22:53:29.988Z,47.40
2023-02-27T22:54:30.158Z,47.97
2023-02-27T22:55:30.359Z,48.33
2023-02-27T22:56:30.531Z,47.98
2023-02-27T22:57:30.677Z,49.04
2023-02-27T22:58:30.837Z,48.23
2023-02-27T22:59:30.989Z,48.37
2023-02-27T23:00:31.211Z,47.97
2023-02-27T23:02:31.572Z,47.40
2023-02-27T23:03:31.780Z,47.85
2023-02-27T23:04:31.904Z,47.31
2023-02-27T23:26:36.076Z,46.35
2023-02-27T23:27:36.251Z,46.39
2023-02-27T23:28:36.439Z,46.44
2023-02-27T23:29:36.642Z,46.78
2023-02-27T23:30:36.784Z,46.66
2023-02-27T23:31:37.364Z,47.20
2023-02-27T23:32:37.155Z,47.24
2023-02-27T23:33:37.321Z,47.01
2023-02-27T23:34:49.025Z,46.97
2023-02-27T23:36:37.706Z,46.91
2023-02-27T23:37:37.816Z,46.71
2023-02-27T23:38:37.955Z,47.45
2023-02-27T23:39:38.085Z,48.06
2023-02-27T23:40:38.234Z,47.42
2023-02-27T23:41:38.370Z,47.47
2023-02-27T23:42:38.501Z,47.22
2023-02-27T23:43:38.640Z,47.00
2023-02-27T23:44:38.784Z,46.99
2023-02-27T23:45:38.928Z,46.92
2023-02-27T23:46:39.035Z,46.57
2023-02-27T23:47:39.191Z,46.35
2023-02-27T23:48:39.391Z,46.58
2023-02-27T23:49:39.565Z,46.40
